Elblag, Poland

8:51 PM CEST on July 28, 2014 (GMT +0200)
Krynica Morska, Poland (IPOMORSK13) Elev 30 ft | 54.38 °N, 19.44 °E | Change Station

Current weather conditions updated 10 seconds ago

Clear
Clear
74.2 °F
Feels Like 75 °F
N
0.0
Wind Variable Wind from ENE
Gusts 0.0 mph

Tomorrow is forecast to be Cooler than today. Showers and thunderstorms late.

Today
High -- | Low -- °F
--% Chance of Precip.
Yesterday
High -- | Low -- °F
Precip. -- in
4:47 AM 8:48 PM
Waxing Crescent, 3% visible
Pressure 29.89 in
Visibility 5.0 miles
Clouds
Heat Index 75 °F
Dew Point 68 °F
Humidity 80%
Rainfall 0.00 in
Snow Depth Not available.
UV Not available.
Pollen Not available.
Air Quality Not available.
Flu Activity Not available.
METAR EPGD 281830Z 02003KT 8000 NSC 21/20 Q1012

More Conditions Fewer Conditions

Pressure 29.89 in
Visibility 5.0 miles
Clouds
Heat Index 75 °F
Dew Point 68 °F
Humidity 80%
Rainfall 0.00 in
Snow Depth Not available.
UV Not available.
Pollen Not available.
Air Quality Not available.
Flu Activity Not available.
METAR EPGD 281830Z 02003KT 8000 NSC 21/20 Q1012

More Conditions Fewer Conditions

10-Day Weather Forecast

Almanac

Astronomy

Jul. 28, 2014 Rise Set
Actual Time 4:47 AM CEST 8:48 PM CEST
Civil Twilight 4:01 AM CEST 9:34 PM CEST
Nautical Twilight 2:54 AM CEST 10:40 PM CEST
Astronomical Twilight 1:21 AM CEST 12:16 AM CEST
Moon 6:36 AM CEST 8:52 PM CEST
Length of Visible Light 17h 32m
Length of Day
16h 00m
Tomorrow will be 3m 24s shorter.
Waxing Crescent, 3% of the Moon is Illuminated
Today
Waxing Crescent
Aug 3
First Quarter
Aug 10
Full
Aug 17
Last Quarter
Aug 25
New

Today's Extremes

Country Highs Country Lows

Community

WunderPhotos

Upload Photos

1,738,433 photos uploaded!

Nearby

Snow Depth

Not available.

Earthquake Activity

City Distance Mag. Time & Date
No recent earthquake activity has been reported nearby.
Minimum magnitude displayed is 2.5.

Coastal Water Temperatures

Place Temperature
No Stations Reporting

Nearby Weather Stations

Station Location Temp. Heat Index Dew Point Humidity Wind Precip. Elev Updated Type
Krynica Morska, Poland, Krynica Morska 74.2 °F 75 °F 68 °F 80% ENE  at  0.0 mph 0.00 in / hr 30 ft 8:51 PM CEST Rapid Fire
Mikoszewo Pomorskie, Mikoszewo 73.6 °F 73 °F 69 °F 86% NW  at  2.0 mph 0.00 in / hr 16 ft 8:51 PM CEST Normal

Show More Stations Show Fewer Stations